createdAt,value
2019-02-12T00:00:30.412Z,69.70
2019-02-12T00:02:58.747Z,69.60
2019-02-12T00:05:27.004Z,69.50
2019-02-12T00:07:55.266Z,69.50
2019-02-12T00:10:23.523Z,69.60
2019-02-12T00:12:51.801Z,69.50
2019-02-12T00:15:20.056Z,69.50
2019-02-12T00:17:48.323Z,69.50
2019-02-12T00:20:16.648Z,69.70
2019-02-12T00:22:44.946Z,69.80
2019-02-12T00:25:13.213Z,69.80
2019-02-12T00:27:43.503Z,70.10
2019-02-12T00:30:11.533Z,70.20
2019-02-12T00:32:39.862Z,70.20
2019-02-12T00:35:08.127Z,70.00
2019-02-12T00:37:36.789Z,69.70
2019-02-12T00:40:07.328Z,69.50
2019-02-12T00:42:35.582Z,69.40
2019-02-12T00:45:04.964Z,69.40
2019-02-12T00:47:33.309Z,69.30
2019-02-12T00:50:01.641Z,69.00
2019-02-12T00:52:29.936Z,69.40
2019-02-12T00:54:58.184Z,69.40
2019-02-12T00:57:26.445Z,69.30
2019-02-12T00:59:54.712Z,69.10
2019-02-12T01:02:22.966Z,68.60
2019-02-12T01:04:51.228Z,68.80
2019-02-12T01:07:19.497Z,68.40
2019-02-12T01:09:47.768Z,68.50
2019-02-12T01:12:16.015Z,68.50
2019-02-12T01:14:44.286Z,68.20
2019-02-12T01:17:12.588Z,68.10
2019-02-12T01:19:40.889Z,67.90
2019-02-12T01:22:09.188Z,67.90
2019-02-12T01:24:37.547Z,67.80
2019-02-12T01:27:05.801Z,68.00
2019-02-12T01:29:34.047Z,68.40
2019-02-12T01:32:02.327Z,68.20
2019-02-12T01:34:30.586Z,68.40
2019-02-12T01:36:58.835Z,68.30
2019-02-12T01:39:27.112Z,68.00
2019-02-12T01:41:55.355Z,67.50
2019-02-12T01:44:23.656Z,67.50
2019-02-12T01:46:51.911Z,67.40
2019-02-12T01:49:20.163Z,66.50
2019-02-12T01:51:48.432Z,67.00
2019-02-12T01:54:16.692Z,66.80
2019-02-12T01:56:44.998Z,66.80
2019-02-12T01:59:13.279Z,66.50
2019-02-12T02:01:54.073Z,66.50
2019-02-12T02:04:21.682Z,66.80
2019-02-12T02:06:49.939Z,64.20
2019-02-12T02:09:18.211Z,66.60
2019-02-12T02:11:46.463Z,66.80
2019-02-12T02:14:14.763Z,67.20
2019-02-12T02:16:43.019Z,67.30
2019-02-12T02:19:11.306Z,68.10
2019-02-12T02:21:44.048Z,67.70
2019-02-12T02:24:09.630Z,67.60
2019-02-12T02:26:37.884Z,67.60
2019-02-12T02:29:06.155Z,68.10
2019-02-12T02:31:34.430Z,67.70
2019-02-12T02:34:02.770Z,67.80
2019-02-12T02:36:31.039Z,67.80
2019-02-12T02:38:59.291Z,67.90
2019-02-12T02:41:27.546Z,67.90
2019-02-12T02:43:55.814Z,68.20
2019-02-12T02:46:24.065Z,68.40
2019-02-12T02:48:52.345Z,68.40
2019-02-12T02:51:20.598Z,68.20
2019-02-12T02:53:48.862Z,68.10
2019-02-12T02:56:17.159Z,67.90
2019-02-12T02:58:45.412Z,68.20
2019-02-12T03:01:13.663Z,67.90
2019-02-12T03:03:41.929Z,67.70
2019-02-12T03:06:10.230Z,67.60
2019-02-12T03:08:38.485Z,67.90
2019-02-12T03:11:06.784Z,67.60
2019-02-12T03:13:35.043Z,67.60
2019-02-12T03:16:03.294Z,67.30
2019-02-12T03:18:31.588Z,67.50
2019-02-12T03:20:59.854Z,67.30
2019-02-12T03:23:28.284Z,67.50
2019-02-12T03:25:56.548Z,67.50
2019-02-12T03:28:24.806Z,67.60
2019-02-12T03:30:53.133Z,67.40
2019-02-12T03:33:21.455Z,67.80
2019-02-12T03:35:49.765Z,67.90
2019-02-12T03:38:18.057Z,67.60
2019-02-12T03:40:46.376Z,67.60
2019-02-12T03:43:14.652Z,67.60
2019-02-12T03:45:42.909Z,67.60
2019-02-12T03:48:11.209Z,67.50
2019-02-12T03:50:39.524Z,67.50
2019-02-12T03:53:07.798Z,67.40
2019-02-12T03:55:36.052Z,67.60
2019-02-12T03:58:04.651Z,67.90
2019-02-12T04:00:32.909Z,67.70
2019-02-12T04:03:06.126Z,67.80
2019-02-12T04:05:35.686Z,67.90
2019-02-12T04:08:04.388Z,68.00
2019-02-12T04:10:32.653Z,68.40
2019-02-12T04:13:00.938Z,68.40
2019-02-12T04:15:29.272Z,68.40
2019-02-12T04:17:57.536Z,68.40
2019-02-12T04:20:25.851Z,68.50
2019-02-12T04:22:54.132Z,68.40
2019-02-12T04:25:22.407Z,68.30
2019-02-12T04:28:10.107Z,68.50
2019-02-12T04:30:38.358Z,68.50
2019-02-12T04:33:06.666Z,68.60
2019-02-12T04:35:34.915Z,68.60
2019-02-12T04:38:03.169Z,68.90
2019-02-12T04:40:31.431Z,68.90
2019-02-12T04:42:59.685Z,69.10
2019-02-12T04:45:27.967Z,69.10
2019-02-12T04:47:56.246Z,68.90
2019-02-12T04:50:24.526Z,68.70
2019-02-12T04:52:52.779Z,68.40
2019-02-12T04:55:21.056Z,68.60
2019-02-12T04:57:49.307Z,68.60
2019-02-12T05:00:18.408Z,69.40
2019-02-12T05:02:46.667Z,68.80
2019-02-12T05:05:14.926Z,68.80
2019-02-12T05:07:43.191Z,69.00
2019-02-12T05:10:14.964Z,68.90
2019-02-12T05:12:43.228Z,68.90
2019-02-12T05:15:11.726Z,68.80
2019-02-12T05:17:39.976Z,68.90
2019-02-12T05:20:13.732Z,69.40
2019-02-12T05:22:43.861Z,69.40
2019-02-12T05:25:11.989Z,69.70
2019-02-12T05:27:40.255Z,69.70
2019-02-12T05:30:13.599Z,69.90
2019-02-12T05:32:41.858Z,70.00
2019-02-12T05:35:10.119Z,70.00
2019-02-12T05:37:38.418Z,69.60
2019-02-12T05:40:08.984Z,69.60
2019-02-12T05:42:37.254Z,69.90
2019-02-12T05:45:11.500Z,70.50
2019-02-12T05:47:39.805Z,69.70
2019-02-12T05:50:10.900Z,69.70
2019-02-12T05:52:39.162Z,69.70
2019-02-12T05:55:07.426Z,69.80
2019-02-12T05:57:35.703Z,69.70
2019-02-12T06:00:06.840Z,69.70
2019-02-12T06:02:35.107Z,70.00
2019-02-12T06:05:03.863Z,69.70
2019-02-12T06:07:32.191Z,69.70
2019-02-12T06:10:00.451Z,69.60
2019-02-12T06:12:28.715Z,69.80
2019-02-12T06:14:57.000Z,69.90
2019-02-12T06:17:25.347Z,69.70
2019-02-12T06:19:53.595Z,69.80
2019-02-12T06:22:21.884Z,69.40
2019-02-12T06:24:50.140Z,69.60
2019-02-12T06:27:18.400Z,69.50
2019-02-12T06:29:46.665Z,69.60
2019-02-12T06:32:14.971Z,69.40
2019-02-12T06:34:43.254Z,69.40
2019-02-12T06:37:11.603Z,69.10
2019-02-12T06:39:39.862Z,69.20
2019-02-12T06:42:08.111Z,68.90
2019-02-12T06:44:36.392Z,68.90
2019-02-12T06:47:04.740Z,68.80
2019-02-12T06:49:32.990Z,69.00
2019-02-12T06:52:01.251Z,68.50
2019-02-12T06:54:29.520Z,68.60
2019-02-12T06:56:57.808Z,68.60
2019-02-12T06:59:26.084Z,68.80
2019-02-12T07:01:57.591Z,68.80
2019-02-12T07:04:25.859Z,69.00
2019-02-12T07:07:03.515Z,68.90
2019-02-12T07:09:35.047Z,70.00
2019-02-12T07:12:18.332Z,69.00
2019-02-12T07:14:55.458Z,69.10
2019-02-12T07:17:41.949Z,69.40
2019-02-12T07:20:37.388Z,69.30
2019-02-12T07:23:21.363Z,69.40
2019-02-12T07:25:59.891Z,69.50
2019-02-12T07:28:46.416Z,69.80
2019-02-12T07:31:34.708Z,70.00
2019-02-12T07:34:08.831Z,70.10
2019-02-12T07:37:04.773Z,70.30
2019-02-12T07:39:54.121Z,70.50
2019-02-12T07:42:49.268Z,70.50
2019-02-12T07:45:48.816Z,70.50
2019-02-12T07:48:36.463Z,70.30
2019-02-12T07:51:13.814Z,70.40
2019-02-12T07:53:48.290Z,70.30
2019-02-12T07:56:34.702Z,70.40
2019-02-12T07:59:12.173Z,70.40
2019-02-12T08:02:06.151Z,70.50
2019-02-12T08:04:46.016Z,70.70
2019-02-12T08:07:26.173Z,70.70
2019-02-12T08:10:00.307Z,70.60
2019-02-12T08:12:31.856Z,70.70
2019-02-12T08:15:11.750Z,70.80
2019-02-12T08:17:58.088Z,70.80
2019-02-12T08:20:58.244Z,70.70
2019-02-12T08:23:46.107Z,70.80
2019-02-12T08:26:20.462Z,70.80
2019-02-12T08:28:57.671Z,70.70
2019-02-12T08:31:47.516Z,71.00
2019-02-12T08:34:35.520Z,71.10
2019-02-12T08:37:10.029Z,71.10
2019-02-12T08:39:50.046Z,70.80
2019-02-12T08:42:48.569Z,70.80
2019-02-12T08:45:50.218Z,70.10
2019-02-12T08:48:24.424Z,70.50
2019-02-12T08:51:30.935Z,68.80
2019-02-12T08:54:02.463Z,69.40
2019-02-12T08:56:54.999Z,68.70
2019-02-12T08:59:29.472Z,67.60
2019-02-12T09:02:01.051Z,68.70
2019-02-12T09:04:53.749Z,68.00
2019-02-12T09:07:27.723Z,67.40
2019-02-12T09:10:02.198Z,67.20
2019-02-12T09:12:48.944Z,67.80
2019-02-12T09:15:28.695Z,68.00
2019-02-12T09:18:15.243Z,67.40
2019-02-12T09:20:49.663Z,68.10
2019-02-12T09:23:29.585Z,66.70
2019-02-12T09:26:25.068Z,66.60
2019-02-12T09:29:05.143Z,66.00
2019-02-12T09:31:42.116Z,65.40
2019-02-12T09:34:32.751Z,63.60
2019-02-12T09:37:23.339Z,64.70
2019-02-12T09:40:18.958Z,64.50
2019-02-12T09:42:51.831Z,64.60
2019-02-12T09:45:39.530Z,64.20
2019-02-12T09:48:19.813Z,64.70
2019-02-12T09:50:56.733Z,65.00
2019-02-12T09:53:40.191Z,65.30
2019-02-12T09:56:23.286Z,65.70
2019-02-12T09:58:57.526Z,66.10
2019-02-12T10:01:46.702Z,66.50
2019-02-12T10:04:18.258Z,66.80
2019-02-12T10:06:49.782Z,67.40
2019-02-12T10:09:37.927Z,68.00
2019-02-12T10:12:15.228Z,69.20
2019-02-12T10:15:06.363Z,71.00
2019-02-12T10:17:37.937Z,72.20
2019-02-12T10:20:55.993Z,72.40
2019-02-12T10:23:54.753Z,72.70
2019-02-12T10:26:31.412Z,72.10
2019-02-12T10:29:18.090Z,72.50
2019-02-12T10:31:45.459Z,72.00
2019-02-12T10:34:13.727Z,70.80
2019-02-12T10:36:41.974Z,69.70
2019-02-12T10:39:10.859Z,70.90
2019-02-12T10:41:39.119Z,69.50
2019-02-12T10:44:07.389Z,67.60
2019-02-12T10:46:35.660Z,66.30
2019-02-12T10:49:03.931Z,65.10
2019-02-12T10:51:32.216Z,64.00
2019-02-12T10:54:00.511Z,63.10
2019-02-12T10:56:28.800Z,61.80
2019-02-12T10:58:57.048Z,62.20
2019-02-12T11:01:25.331Z,62.10
2019-02-12T11:03:53.591Z,62.60
2019-02-12T11:06:21.891Z,62.10
2019-02-12T11:08:50.140Z,62.10
2019-02-12T11:11:18.412Z,61.70
2019-02-12T11:13:46.675Z,60.70
2019-02-12T11:16:14.951Z,62.30
2019-02-12T11:18:43.227Z,62.50
2019-02-12T11:21:12.135Z,61.30
2019-02-12T11:23:40.865Z,60.50
2019-02-12T11:26:09.132Z,60.70
2019-02-12T11:28:37.746Z,60.70
2019-02-12T11:31:06.024Z,59.80
2019-02-12T11:33:34.311Z,59.20
2019-02-12T11:36:02.572Z,59.00
2019-02-12T11:38:30.822Z,58.90
2019-02-12T11:40:59.095Z,59.00
2019-02-12T11:43:27.433Z,59.30
2019-02-12T11:45:55.683Z,59.50
2019-02-12T11:48:24.236Z,60.10
2019-02-12T11:50:52.530Z,59.30
2019-02-12T11:53:20.859Z,60.90
2019-02-12T11:55:49.107Z,60.60
2019-02-12T11:58:18.252Z,60.70
2019-02-12T12:00:48.142Z,60.50
2019-02-12T12:03:16.431Z,59.60
2019-02-12T12:05:44.766Z,60.20
2019-02-12T12:08:13.020Z,60.10
2019-02-12T12:10:41.291Z,59.90
2019-02-12T12:13:09.551Z,60.20
2019-02-12T12:15:37.821Z,60.70
2019-02-12T12:18:06.075Z,60.00
2019-02-12T12:20:34.357Z,58.70
2019-02-12T12:23:02.619Z,59.10
2019-02-12T12:25:30.926Z,58.00
2019-02-12T12:27:59.184Z,56.30
2019-02-12T12:30:27.449Z,57.40
2019-02-12T12:32:56.543Z,57.30
2019-02-12T12:35:24.927Z,57.40
2019-02-12T12:37:53.211Z,56.00
2019-02-12T12:40:21.463Z,55.00
2019-02-12T12:42:49.776Z,55.20
2019-02-12T12:45:18.099Z,54.40
2019-02-12T12:47:46.359Z,55.30
2019-02-12T12:50:14.632Z,54.50
2019-02-12T12:52:42.886Z,56.20
2019-02-12T12:55:11.458Z,55.80
2019-02-12T12:57:41.794Z,56.30
2019-02-12T13:00:12.615Z,54.80
2019-02-12T13:02:40.871Z,54.50
2019-02-12T13:05:11.018Z,53.70
2019-02-12T13:07:38.971Z,55.10
2019-02-12T13:10:10.705Z,51.20
2019-02-12T13:12:39.054Z,54.80
2019-02-12T13:15:09.863Z,54.90
2019-02-12T13:17:38.114Z,55.00
2019-02-12T13:20:09.650Z,55.10
2019-02-12T13:22:37.929Z,54.30
2019-02-12T13:25:08.845Z,53.20
2019-02-12T13:27:36.799Z,53.80
2019-02-12T13:30:08.354Z,51.50
2019-02-12T13:32:36.603Z,54.60
2019-02-12T13:35:06.113Z,52.20
2019-02-12T13:37:34.378Z,53.10
2019-02-12T13:40:03.518Z,51.90
2019-02-12T13:42:31.798Z,53.40
2019-02-12T13:45:00.095Z,53.50
2019-02-12T13:47:28.830Z,53.40
2019-02-12T13:49:57.082Z,53.00
2019-02-12T13:52:25.346Z,52.30
2019-02-12T13:54:53.607Z,52.70
2019-02-12T13:57:21.907Z,51.80
2019-02-12T13:59:50.153Z,52.20
2019-02-12T14:02:18.427Z,52.50
2019-02-12T14:04:47.858Z,53.80
2019-02-12T14:07:16.159Z,53.50
2019-02-12T14:09:44.414Z,54.00
2019-02-12T14:12:12.662Z,54.90
2019-02-12T14:14:40.939Z,54.70
2019-02-12T14:17:09.195Z,54.80
2019-02-12T14:19:37.463Z,54.80
2019-02-12T14:22:05.748Z,55.30
2019-02-12T14:24:34.012Z,55.00
2019-02-12T14:27:02.266Z,55.60
2019-02-12T14:29:30.613Z,54.80
2019-02-12T14:31:58.894Z,55.10
2019-02-12T14:34:27.165Z,55.70
2019-02-12T14:36:55.431Z,55.60
2019-02-12T14:39:23.682Z,55.90
2019-02-12T14:41:51.978Z,55.70
2019-02-12T14:44:20.279Z,55.90
2019-02-12T14:46:48.530Z,55.60
2019-02-12T14:49:16.790Z,56.00
2019-02-12T14:51:45.060Z,55.90
2019-02-12T14:54:13.315Z,56.10
2019-02-12T14:56:41.570Z,56.40
2019-02-12T14:59:09.849Z,57.10
2019-02-12T15:01:38.102Z,56.40
2019-02-12T15:04:06.366Z,57.20
2019-02-12T15:06:34.634Z,57.10
2019-02-12T15:09:03.278Z,57.50
2019-02-12T15:11:31.534Z,57.30
2019-02-12T15:13:59.802Z,57.60
2019-02-12T15:16:28.055Z,57.70
2019-02-12T15:18:56.347Z,57.70
2019-02-12T15:21:24.595Z,57.50
2019-02-12T15:23:52.844Z,57.90
2019-02-12T15:26:21.131Z,58.00
2019-02-12T15:28:51.037Z,58.20
2019-02-12T15:31:19.372Z,58.50
2019-02-12T15:33:47.670Z,58.60
2019-02-12T15:36:15.938Z,58.60
2019-02-12T15:38:44.264Z,58.70
2019-02-12T15:41:12.555Z,59.00
2019-02-12T15:43:40.810Z,59.10
2019-02-12T15:46:09.068Z,59.30
2019-02-12T15:48:37.330Z,59.50
2019-02-12T15:51:05.622Z,59.60
2019-02-12T15:53:33.867Z,59.60
2019-02-12T15:56:02.120Z,59.80
2019-02-12T15:58:30.442Z,59.90
2019-02-12T16:00:58.718Z,60.00
2019-02-12T16:03:27.038Z,60.10
2019-02-12T16:05:57.155Z,60.20
2019-02-12T16:08:25.319Z,60.30
2019-02-12T16:10:55.044Z,60.50
2019-02-12T16:13:23.554Z,60.60
2019-02-12T16:15:51.827Z,60.80
2019-02-12T16:18:21.383Z,60.80
2019-02-12T16:20:50.095Z,60.70
2019-02-12T16:23:18.361Z,60.90
2019-02-12T16:25:46.630Z,61.00
2019-02-12T16:28:14.902Z,61.10
2019-02-12T16:30:43.171Z,61.00
2019-02-12T16:33:11.428Z,61.30
2019-02-12T16:35:39.695Z,61.50
2019-02-12T16:38:07.946Z,61.60
2019-02-12T16:40:36.217Z,61.70
2019-02-12T16:43:04.480Z,61.60
2019-02-12T16:45:36.003Z,61.50
2019-02-12T16:48:04.276Z,61.60
2019-02-12T16:50:32.628Z,61.80
2019-02-12T16:53:01.280Z,61.80
2019-02-12T16:55:29.541Z,61.80
2019-02-12T16:57:57.887Z,61.80
2019-02-12T17:00:26.215Z,62.00
2019-02-12T17:02:54.491Z,62.20
2019-02-12T17:05:22.744Z,62.30
2019-02-12T17:07:51.015Z,62.50
2019-02-12T17:10:19.279Z,62.50
2019-02-12T17:12:47.546Z,62.50
2019-02-12T17:15:15.817Z,63.40
2019-02-12T17:17:44.079Z,62.60
2019-02-12T17:20:15.590Z,62.80
2019-02-12T17:22:43.856Z,62.80
2019-02-12T17:25:12.190Z,63.10
2019-02-12T17:27:40.526Z,63.50
2019-02-12T17:30:16.561Z,63.70
2019-02-12T17:32:44.840Z,63.80
2019-02-12T17:35:13.212Z,63.90
2019-02-12T17:37:41.536Z,63.90
2019-02-12T17:40:18.011Z,64.00
2019-02-12T17:42:46.295Z,63.90
2019-02-12T17:45:15.573Z,64.10
2019-02-12T17:47:43.827Z,64.10
2019-02-12T17:50:15.678Z,64.20
2019-02-12T17:52:43.939Z,65.10
2019-02-12T17:55:12.198Z,64.40
2019-02-12T17:57:40.468Z,64.70
2019-02-12T18:00:32.598Z,64.70
2019-02-12T18:03:00.854Z,64.80
2019-02-12T18:05:29.130Z,64.80
2019-02-12T18:07:57.406Z,64.90
2019-02-12T18:10:25.745Z,65.10
2019-02-12T18:12:54.039Z,65.10
2019-02-12T18:15:22.295Z,65.00
2019-02-12T18:17:50.596Z,65.40
2019-02-12T18:20:26.365Z,65.50
2019-02-12T18:22:48.931Z,65.70
2019-02-12T18:25:17.187Z,66.00
2019-02-12T18:27:45.445Z,66.10
2019-02-12T18:30:15.368Z,66.30
2019-02-12T18:32:43.681Z,66.40
2019-02-12T18:35:12.020Z,66.40
2019-02-12T18:37:40.303Z,66.40
2019-02-12T18:40:13.784Z,66.60
2019-02-12T18:42:42.056Z,66.70
2019-02-12T18:45:18.806Z,66.90
2019-02-12T18:47:47.087Z,67.10
2019-02-12T18:50:15.419Z,67.30
2019-02-12T18:52:43.691Z,67.30
2019-02-12T18:55:16.018Z,67.40
2019-02-12T18:57:44.275Z,67.60
2019-02-12T19:00:17.971Z,67.60
2019-02-12T19:02:46.232Z,67.60
2019-02-12T19:05:14.511Z,67.80
2019-02-12T19:07:43.004Z,67.70
2019-02-12T19:10:13.260Z,67.80
2019-02-12T19:12:41.541Z,67.70
2019-02-12T19:15:12.903Z,67.70
2019-02-12T19:17:41.813Z,67.80
2019-02-12T19:20:12.690Z,67.80
2019-02-12T19:22:40.955Z,67.80
2019-02-12T19:25:10.703Z,68.00
2019-02-12T19:27:38.974Z,67.90
2019-02-12T19:30:16.228Z,67.90
2019-02-12T19:32:44.720Z,68.10
2019-02-12T19:35:12.968Z,68.10
2019-02-12T19:37:41.243Z,68.10
2019-02-12T19:40:12.928Z,68.10
2019-02-12T19:42:41.201Z,68.30
2019-02-12T19:45:12.367Z,68.30
2019-02-12T19:47:40.635Z,68.40
2019-02-12T19:50:09.935Z,68.40
2019-02-12T19:52:38.209Z,68.60
2019-02-12T19:55:08.218Z,68.60
2019-02-12T19:57:36.472Z,68.90
2019-02-12T20:00:09.223Z,69.00
2019-02-12T20:02:37.483Z,69.10
2019-02-12T20:05:09.042Z,69.30
2019-02-12T20:07:37.315Z,69.30
2019-02-12T20:10:08.219Z,69.30
2019-02-12T20:12:36.559Z,69.30
2019-02-12T20:15:07.969Z,69.40
2019-02-12T20:17:36.232Z,69.30
2019-02-12T20:20:07.179Z,69.40
2019-02-12T20:22:35.435Z,69.60
2019-02-12T20:25:03.780Z,69.60
2019-02-12T20:27:35.916Z,69.60
2019-02-12T20:30:02.431Z,69.60
2019-02-12T20:32:30.711Z,69.60
2019-02-12T20:34:58.967Z,69.70
2019-02-12T20:37:27.270Z,69.70
2019-02-12T20:39:55.554Z,69.70
2019-02-12T20:42:23.822Z,69.80
2019-02-12T20:44:52.083Z,69.70
2019-02-12T20:47:20.351Z,69.70
2019-02-12T20:49:48.615Z,69.90
2019-02-12T20:52:16.891Z,70.00
2019-02-12T20:54:45.179Z,69.80
2019-02-12T20:57:15.227Z,70.10
2019-02-12T20:59:43.427Z,70.20
2019-02-12T21:02:11.686Z,70.00
2019-02-12T21:04:39.972Z,70.20
2019-02-12T21:07:08.237Z,70.10
2019-02-12T21:09:36.550Z,70.80
2019-02-12T21:12:04.822Z,70.10
2019-02-12T21:14:33.105Z,70.30
2019-02-12T21:17:01.386Z,70.20
2019-02-12T21:19:29.763Z,70.20
2019-02-12T21:21:58.099Z,69.90
2019-02-12T21:24:26.362Z,70.00
2019-02-12T21:26:54.642Z,70.10
2019-02-12T21:29:22.927Z,70.00
2019-02-12T21:31:51.298Z,70.00
2019-02-12T21:34:19.632Z,69.90
2019-02-12T21:36:47.980Z,69.90
2019-02-12T21:39:17.875Z,69.80
2019-02-12T21:41:46.184Z,69.80
2019-02-12T21:44:14.443Z,69.70
2019-02-12T21:46:43.331Z,69.60
2019-02-12T21:49:11.647Z,69.40
2019-02-12T21:51:39.906Z,69.40
2019-02-12T21:54:08.206Z,69.60
2019-02-12T21:56:36.484Z,69.50
2019-02-12T21:59:04.747Z,69.50
2019-02-12T22:01:33.010Z,69.50
2019-02-12T22:04:01.290Z,69.50
2019-02-12T22:06:29.551Z,69.60
2019-02-12T22:08:57.808Z,69.40
2019-02-12T22:11:26.074Z,69.60
2019-02-12T22:13:54.338Z,69.60
2019-02-12T22:16:22.619Z,69.70
2019-02-12T22:18:50.877Z,69.70
2019-02-12T22:21:19.143Z,69.60
2019-02-12T22:23:47.448Z,70.20
2019-02-12T22:26:15.702Z,69.70
2019-02-12T22:28:43.959Z,69.70
2019-02-12T22:31:12.230Z,69.60
2019-02-12T22:33:40.495Z,69.60
2019-02-12T22:36:08.799Z,69.50
2019-02-12T22:38:37.056Z,69.40
2019-02-12T22:41:05.310Z,69.60
2019-02-12T22:43:33.611Z,69.50
2019-02-12T22:46:01.874Z,69.40
2019-02-12T22:48:30.154Z,69.60
2019-02-12T22:50:58.483Z,69.60
2019-02-12T22:53:26.810Z,69.70
2019-02-12T22:55:55.081Z,69.90
2019-02-12T22:58:23.371Z,69.90
2019-02-12T23:00:57.883Z,70.10
2019-02-12T23:03:26.218Z,70.20
2019-02-12T23:05:54.502Z,70.90
2019-02-12T23:08:22.760Z,70.20
2019-02-12T23:10:51.040Z,70.20
2019-02-12T23:13:19.311Z,70.10
2019-02-12T23:15:47.587Z,70.00
2019-02-12T23:18:15.855Z,70.00
2019-02-12T23:20:44.122Z,70.00
2019-02-12T23:23:12.383Z,70.00
2019-02-12T23:25:40.659Z,70.00
2019-02-12T23:28:08.919Z,69.90
2019-02-12T23:30:37.191Z,69.80
2019-02-12T23:33:05.467Z,69.70
2019-02-12T23:35:33.743Z,69.70
2019-02-12T23:38:02.003Z,69.60
2019-02-12T23:40:30.274Z,69.60
2019-02-12T23:42:58.568Z,69.60
2019-02-12T23:45:26.886Z,69.70
2019-02-12T23:47:55.155Z,69.70
2019-02-12T23:50:23.426Z,69.70
2019-02-12T23:52:51.709Z,69.70
2019-02-12T23:55:20.004Z,69.80
2019-02-12T23:57:48.335Z,69.70
